createdAt,value
2024-01-24T00:01:36.560Z,101193.72
2024-01-24T00:04:03.354Z,101182.97
2024-01-24T00:06:29.988Z,101189.72
2024-01-24T00:08:56.530Z,101208.78
2024-01-24T00:11:23.079Z,101198.06
2024-01-24T00:13:50.817Z,101191.16
2024-01-24T00:16:17.426Z,101198.44
2024-01-24T00:18:43.964Z,101176.50
2024-01-24T00:21:10.486Z,101159.06
2024-01-24T00:23:36.989Z,101169.16
2024-01-24T00:26:03.500Z,101193.72
2024-01-24T00:28:30.892Z,101172.78
2024-01-24T00:30:57.738Z,101193.44
2024-01-24T00:33:27.008Z,101174.38
2024-01-24T00:35:53.514Z,101183.66
2024-01-24T00:38:20.165Z,101194.22
2024-01-24T00:40:46.689Z,101213.03
2024-01-24T00:43:13.264Z,101200.66
2024-01-24T00:45:39.838Z,101204.69
2024-01-24T00:48:07.789Z,101196.13
2024-01-24T00:50:35.822Z,101215.78
2024-01-24T00:53:05.746Z,101215.78
2024-01-24T00:55:32.238Z,101254.56
2024-01-24T00:57:59.543Z,101225.91
2024-01-24T01:00:26.229Z,101233.00
2024-01-24T01:02:52.878Z,101227.72
2024-01-24T01:05:19.710Z,101233.34
2024-01-24T01:07:46.755Z,101211.44
2024-01-24T01:10:13.291Z,101215.88
2024-01-24T01:12:39.866Z,101209.78
2024-01-24T01:15:06.955Z,101209.78
2024-01-24T01:17:33.469Z,101203.06
2024-01-24T01:19:59.971Z,101220.06
2024-01-24T01:22:26.641Z,101214.00
2024-01-24T01:24:53.304Z,101219.25
2024-01-24T01:27:19.847Z,101214.16
2024-01-24T01:29:46.400Z,101210.09
2024-01-24T01:32:12.986Z,101218.81
2024-01-24T01:34:39.501Z,101210.09
2024-01-24T01:37:06.209Z,101206.44
2024-01-24T01:39:32.783Z,101197.06
2024-01-24T01:41:59.277Z,101197.06
2024-01-24T01:44:25.869Z,101201.72
2024-01-24T01:46:52.626Z,101196.91
2024-01-24T01:49:19.982Z,101177.63
2024-01-24T01:51:46.931Z,101192.44
2024-01-24T01:54:16.011Z,101181.88
2024-01-24T01:56:42.951Z,101165.41
2024-01-24T01:59:10.258Z,101186.16
2024-01-24T02:01:37.151Z,101185.34
2024-01-24T02:04:04.289Z,101152.53
2024-01-24T02:06:31.010Z,101169.16
2024-01-24T02:08:57.813Z,101173.41
2024-01-24T02:11:24.763Z,101172.41
2024-01-24T02:13:58.320Z,101174.88
2024-01-24T02:16:24.822Z,101166.78
2024-01-24T02:18:51.555Z,101170.88
2024-01-24T02:21:18.182Z,101176.31
2024-01-24T02:23:46.260Z,101161.94
2024-01-24T02:26:12.838Z,101151.41
2024-01-24T02:28:39.438Z,101196.22
2024-01-24T02:31:05.892Z,101179.03
2024-01-24T02:33:32.523Z,101165.03
2024-01-24T02:35:59.068Z,101206.41
2024-01-24T02:38:25.680Z,101191.97
2024-01-24T02:40:52.269Z,101177.59
2024-01-24T02:43:18.878Z,101187.16
2024-01-24T02:45:45.443Z,101211.69
2024-01-24T02:48:12.106Z,101190.59
2024-01-24T02:50:38.667Z,101219.25
2024-01-24T02:53:05.182Z,101231.88
2024-01-24T02:55:31.665Z,101222.34
2024-01-24T02:57:58.271Z,101207.50
2024-01-24T03:00:24.852Z,101240.81
2024-01-24T03:02:51.309Z,101227.63
2024-01-24T03:05:17.934Z,101222.06
2024-01-24T03:07:44.460Z,101225.53
2024-01-24T03:10:11.054Z,101232.59
2024-01-24T03:12:38.782Z,101269.94
2024-01-24T03:15:06.685Z,101264.44
2024-01-24T03:17:33.620Z,101219.25
2024-01-24T03:20:00.313Z,101246.63
2024-01-24T03:22:26.952Z,101239.09
2024-01-24T03:24:53.870Z,101238.44
2024-01-24T03:27:20.614Z,101256.53
2024-01-24T03:29:47.180Z,101262.63
2024-01-24T03:32:13.651Z,101251.63
2024-01-24T03:34:40.110Z,101283.63
2024-01-24T03:37:06.775Z,101299.19
2024-01-24T03:39:33.390Z,101241.53
2024-01-24T03:41:59.876Z,101249.44
2024-01-24T03:44:26.462Z,101268.09
2024-01-24T03:46:53.713Z,101272.56
2024-01-24T03:49:22.891Z,101280.47
2024-01-24T03:51:49.595Z,101254.91
2024-01-24T03:54:16.518Z,101263.19
2024-01-24T03:56:43.131Z,101261.47
2024-01-24T03:59:09.719Z,101240.06
2024-01-24T04:01:36.397Z,101248.38
2024-01-24T04:04:03.081Z,101216.75
2024-01-24T04:06:29.766Z,101218.72
2024-01-24T04:08:56.332Z,101190.44
2024-01-24T04:11:22.852Z,101208.63
2024-01-24T04:13:54.491Z,101229.44
2024-01-24T04:16:21.158Z,101236.25
2024-01-24T04:18:47.950Z,101223.97
2024-01-24T04:21:14.504Z,101236.03
2024-01-24T04:23:40.953Z,101232.31
2024-01-24T04:26:08.220Z,101240.38
2024-01-24T04:28:34.757Z,101234.47
2024-01-24T04:31:01.365Z,101283.88
2024-01-24T04:33:29.024Z,101260.63
2024-01-24T04:35:58.273Z,101268.06
2024-01-24T04:38:25.428Z,101243.91
2024-01-24T04:40:52.662Z,101270.63
2024-01-24T04:43:20.970Z,101306.31
2024-01-24T04:45:47.584Z,101300.06
2024-01-24T04:48:14.229Z,101312.38
2024-01-24T04:50:40.949Z,101303.19
2024-01-24T04:53:07.486Z,101339.13
2024-01-24T04:55:34.064Z,101332.66
2024-01-24T04:58:00.779Z,101337.91
2024-01-24T05:00:27.517Z,101351.28
2024-01-24T05:02:54.150Z,101345.00
2024-01-24T05:05:20.680Z,101370.72
2024-01-24T05:07:47.236Z,101335.00
2024-01-24T05:10:13.797Z,101333.53
2024-01-24T05:12:40.390Z,101367.47
2024-01-24T05:15:09.512Z,101359.94
2024-01-24T05:17:38.733Z,101339.53
2024-01-24T05:20:07.397Z,101341.88
2024-01-24T05:22:33.999Z,101347.69
2024-01-24T05:25:00.619Z,101352.94
2024-01-24T05:27:27.166Z,101354.38
2024-01-24T05:29:53.736Z,101364.09
2024-01-24T05:32:20.299Z,101370.84
2024-01-24T05:34:47.101Z,101375.47
2024-01-24T05:37:13.943Z,101376.28
2024-01-24T05:39:43.018Z,101397.53
2024-01-24T05:42:09.919Z,101409.22
2024-01-24T05:44:36.421Z,101404.41
2024-01-24T05:47:02.916Z,101415.94
2024-01-24T05:49:29.485Z,101402.31
2024-01-24T05:51:56.355Z,101426.16
2024-01-24T05:54:23.057Z,101426.50
2024-01-24T05:56:50.623Z,101413.84
2024-01-24T05:59:17.134Z,101429.97
2024-01-24T06:01:44.622Z,101421.91
2024-01-24T06:04:11.566Z,101441.47
2024-01-24T06:06:38.303Z,101443.09
2024-01-24T06:09:05.028Z,101455.28
2024-01-24T06:11:31.590Z,101457.09
2024-01-24T06:13:58.145Z,101466.13
2024-01-24T06:16:24.754Z,101464.50
2024-01-24T06:18:51.347Z,101471.41
2024-01-24T06:21:17.935Z,101492.81
2024-01-24T06:23:44.494Z,101509.09
2024-01-24T06:26:10.979Z,101491.97
2024-01-24T06:28:38.148Z,101500.25
2024-01-24T06:31:04.853Z,101503.84
2024-01-24T06:33:31.554Z,101498.78
2024-01-24T06:35:59.027Z,101505.03
2024-01-24T06:38:25.612Z,101509.16
2024-01-24T06:40:52.183Z,101523.16
2024-01-24T06:43:19.967Z,101525.59
2024-01-24T06:45:46.633Z,101552.09
2024-01-24T06:48:13.277Z,101550.78
2024-01-24T06:50:40.061Z,101543.53
2024-01-24T06:53:11.016Z,101536.28
2024-01-24T06:55:38.137Z,101542.22
2024-01-24T06:58:07.112Z,101545.66
2024-01-24T07:00:34.802Z,101549.31
2024-01-24T07:03:01.771Z,101565.22
2024-01-24T07:05:28.618Z,101551.44
2024-01-24T07:07:55.112Z,101557.34
2024-01-24T07:10:23.115Z,101577.56
2024-01-24T07:12:49.769Z,101558.34
2024-01-24T07:15:20.156Z,101569.31
2024-01-24T07:17:47.460Z,101570.63
2024-01-24T07:20:14.729Z,101570.94
2024-01-24T07:22:41.234Z,101594.16
2024-01-24T07:25:08.630Z,101574.06
2024-01-24T07:27:36.725Z,101571.75
2024-01-24T07:30:06.991Z,101584.09
2024-01-24T07:32:33.667Z,101583.28
2024-01-24T07:35:00.762Z,101588.19
2024-01-24T07:37:27.498Z,101605.78
2024-01-24T07:39:55.911Z,101603.78
2024-01-24T07:42:22.467Z,101591.97
2024-01-24T07:44:49.168Z,101606.72
2024-01-24T07:47:16.515Z,101620.03
2024-01-24T07:49:43.200Z,101633.53
2024-01-24T07:52:09.893Z,101650.28
2024-01-24T07:54:36.600Z,101651.75
2024-01-24T07:57:04.854Z,101652.41
2024-01-24T07:59:32.143Z,101661.09
2024-01-24T08:04:25.997Z,101660.13
2024-01-24T08:06:52.688Z,101656.66
2024-01-24T08:09:19.576Z,101657.34
2024-01-24T08:11:46.311Z,101662.94
2024-01-24T08:14:13.679Z,101667.72
2024-01-24T08:16:40.285Z,101657.69
2024-01-24T08:19:06.914Z,101706.84
2024-01-24T08:21:33.567Z,101684.00
2024-01-24T08:24:00.263Z,101691.06
2024-01-24T08:26:26.921Z,101680.03
2024-01-24T08:28:53.889Z,101693.03
2024-01-24T08:31:20.766Z,101688.44
2024-01-24T08:33:50.306Z,101688.13
2024-01-24T08:36:18.743Z,101706.84
2024-01-24T08:38:45.259Z,101710.97
2024-01-24T08:41:11.805Z,101733.63
2024-01-24T08:43:38.296Z,101731.69
2024-01-24T08:46:04.878Z,101725.75
2024-01-24T08:48:31.581Z,101727.38
2024-01-24T08:50:58.146Z,101711.63
2024-01-24T08:53:24.624Z,101723.28
2024-01-24T08:55:51.418Z,101720.66
2024-01-24T08:58:18.092Z,101731.34
2024-01-24T09:00:46.399Z,101739.91
2024-01-24T09:03:13.446Z,101770.34
2024-01-24T09:05:40.145Z,101789.72
2024-01-24T09:08:06.915Z,101791.69
2024-01-24T09:10:33.646Z,101798.28
2024-01-24T09:13:00.485Z,101799.91
2024-01-24T09:15:27.212Z,101761.97
2024-01-24T09:17:53.913Z,101765.72
2024-01-24T09:20:20.723Z,101765.44
2024-01-24T09:22:48.028Z,101766.25
2024-01-24T09:25:15.719Z,101785.16
2024-01-24T09:27:42.753Z,101792.25
2024-01-24T09:30:09.693Z,101826.31
2024-01-24T09:32:36.467Z,101831.28
2024-01-24T09:35:03.486Z,101840.94
2024-01-24T09:37:30.137Z,101842.13
2024-01-24T09:39:57.482Z,101809.88
2024-01-24T09:42:27.004Z,101838.69
2024-01-24T09:44:58.388Z,101830.31
2024-01-24T09:47:25.843Z,101853.00
2024-01-24T09:49:52.747Z,101845.31
2024-01-24T09:52:25.395Z,101827.41
2024-01-24T09:55:00.377Z,101846.50
2024-01-24T09:57:28.120Z,101861.13
2024-01-24T09:59:55.639Z,101850.28
2024-01-24T10:02:22.849Z,101852.59
2024-01-24T10:04:52.846Z,101869.09
2024-01-24T10:07:21.015Z,101910.84
2024-01-24T10:09:48.670Z,101886.38
2024-01-24T10:12:15.352Z,101879.31
2024-01-24T10:14:42.265Z,101902.53
2024-01-24T10:17:13.127Z,101889.88
2024-01-24T10:19:40.383Z,101921.97
2024-01-24T10:22:10.457Z,101917.41
2024-01-24T10:24:37.939Z,101905.06
2024-01-24T10:27:05.596Z,101909.50
2024-01-24T10:29:32.491Z,101902.28
2024-01-24T10:32:00.258Z,101902.09
2024-01-24T10:34:30.872Z,101911.31
2024-01-24T10:36:57.505Z,101921.16
2024-01-24T10:39:26.559Z,101945.00
2024-01-24T10:41:55.653Z,101948.94
2024-01-24T10:44:25.847Z,101942.69
2024-01-24T10:46:52.905Z,101940.91
2024-01-24T10:49:20.417Z,101943.84
2024-01-24T10:51:47.946Z,101974.28
2024-01-24T10:54:17.039Z,101959.97
2024-01-24T10:56:51.112Z,101979.78
2024-01-24T10:59:19.071Z,101986.03
2024-01-24T11:01:46.369Z,101949.84
2024-01-24T11:04:16.666Z,101983.91
2024-01-24T11:06:49.695Z,101977.34
2024-01-24T11:09:27.935Z,101983.44
2024-01-24T11:11:57.781Z,101987.06
2024-01-24T11:14:33.245Z,101995.78
2024-01-24T11:17:00.884Z,101991.50
2024-01-24T11:19:29.395Z,101986.22
2024-01-24T11:22:10.520Z,101997.59
2024-01-24T11:24:46.075Z,102018.78
2024-01-24T11:27:39.532Z,102025.56
2024-01-24T11:30:07.371Z,102036.78
2024-01-24T11:32:46.312Z,102048.97
2024-01-24T11:35:37.086Z,102052.72
2024-01-24T11:38:26.880Z,102057.69
2024-01-24T11:41:11.444Z,102059.31
2024-01-24T11:43:40.175Z,102081.03
2024-01-24T11:46:09.657Z,102072.31
2024-01-24T11:48:38.277Z,102075.91
2024-01-24T11:51:07.131Z,102090.38
2024-01-24T11:53:33.999Z,102074.72
2024-01-24T11:56:03.195Z,102085.25
2024-01-24T11:58:30.902Z,102088.56
2024-01-24T12:01:01.904Z,102085.47
2024-01-24T12:03:28.677Z,102097.50
2024-01-24T12:05:56.338Z,102100.50
2024-01-24T12:08:23.172Z,102103.97
2024-01-24T12:10:52.410Z,102102.84
2024-01-24T12:13:21.441Z,102107.78
2024-01-24T12:15:48.592Z,102132.00
2024-01-24T12:18:17.969Z,102116.06
2024-01-24T12:20:50.652Z,102128.75
2024-01-24T12:23:17.958Z,102128.75
2024-01-24T12:25:45.362Z,102136.47
2024-01-24T12:28:13.180Z,102126.47
2024-01-24T12:30:44.742Z,102108.19
2024-01-24T12:33:11.965Z,102134.84
2024-01-24T12:35:38.691Z,102118.91
2024-01-24T12:38:05.727Z,102142.91
2024-01-24T12:40:33.111Z,102137.25
2024-01-24T12:43:00.905Z,102169.03
2024-01-24T12:45:28.474Z,102167.22
2024-01-24T12:47:55.966Z,102166.56
2024-01-24T12:50:23.807Z,102170.16
2024-01-24T12:52:50.813Z,102169.34
2024-01-24T12:55:18.015Z,102174.09
2024-01-24T12:57:45.635Z,102169.81
2024-01-24T13:00:13.352Z,102201.25
2024-01-24T13:02:41.020Z,102182.47
2024-01-24T13:05:10.177Z,102197.75
2024-01-24T13:07:37.997Z,102206.09
2024-01-24T13:10:07.377Z,102199.31
2024-01-24T13:12:34.872Z,102226.09
2024-01-24T13:15:01.741Z,102208.78
2024-01-24T13:17:28.242Z,102223.75
2024-01-24T13:19:54.911Z,102202.00
2024-01-24T13:22:21.544Z,102247.75
2024-01-24T13:24:48.636Z,102223.88
2024-01-24T13:27:20.344Z,102243.00
2024-01-24T13:29:46.980Z,102254.38
2024-01-24T13:32:13.532Z,102251.59
2024-01-24T13:34:40.150Z,102243.69
2024-01-24T13:37:07.261Z,102250.75
2024-01-24T13:39:34.530Z,102246.47
2024-01-24T13:42:01.932Z,102251.59
2024-01-24T13:44:28.556Z,102254.88
2024-01-24T13:46:55.235Z,102245.19
2024-01-24T13:49:22.028Z,102250.44
2024-01-24T13:51:48.680Z,102271.81
2024-01-24T13:54:15.563Z,102252.56
2024-01-24T13:56:42.269Z,102279.88
2024-01-24T13:59:10.746Z,102278.88
2024-01-24T14:01:42.858Z,102272.25
2024-01-24T14:04:12.774Z,102278.81
2024-01-24T14:06:39.594Z,102286.03
2024-01-24T14:09:06.232Z,102301.16
2024-01-24T14:11:33.847Z,102296.19
2024-01-24T14:14:00.520Z,102316.56
2024-01-24T14:16:27.203Z,102338.47
2024-01-24T14:18:53.817Z,102336.94
2024-01-24T14:21:20.507Z,102344.13
2024-01-24T14:23:47.072Z,102345.41
2024-01-24T14:26:14.181Z,102345.72
2024-01-24T14:28:41.392Z,102351.41
2024-01-24T14:31:08.012Z,102351.56
2024-01-24T14:33:35.478Z,102347.41
2024-01-24T14:36:03.002Z,102360.72
2024-01-24T14:38:29.624Z,102366.13
2024-01-24T14:40:56.929Z,102379.28
2024-01-24T14:43:23.649Z,102362.81
2024-01-24T14:45:50.229Z,102374.44
2024-01-24T14:48:17.536Z,102378.06
2024-01-24T14:50:44.332Z,102383.31
2024-01-24T14:53:10.901Z,102374.72
2024-01-24T14:55:37.558Z,102380.97
2024-01-24T14:58:04.347Z,102396.94
2024-01-24T15:00:31.236Z,102403.97
2024-01-24T15:02:58.677Z,102413.66
2024-01-24T15:05:28.232Z,102421.72
2024-01-24T15:07:55.053Z,102411.47
2024-01-24T15:10:23.425Z,102413.41
2024-01-24T15:12:50.120Z,102406.63
2024-01-24T15:15:16.950Z,102417.28
2024-01-24T15:17:43.673Z,102415.63
2024-01-24T15:20:10.760Z,102421.19
2024-01-24T15:22:39.697Z,102427.41
2024-01-24T15:25:08.647Z,102417.88
2024-01-24T15:27:36.044Z,102436.41
2024-01-24T15:30:02.669Z,102438.38
2024-01-24T15:32:31.080Z,102454.28
2024-01-24T15:34:58.012Z,102444.03
2024-01-24T15:37:24.748Z,102450.25
2024-01-24T15:39:51.407Z,102463.56
2024-01-24T15:42:19.908Z,102469.25
2024-01-24T15:44:47.725Z,102476.44
2024-01-24T15:47:17.800Z,102468.53
2024-01-24T15:49:44.860Z,102486.13
2024-01-24T15:52:14.660Z,102483.06
2024-01-24T15:54:42.499Z,102475.59
2024-01-24T15:57:09.083Z,102488.19
2024-01-24T15:59:36.284Z,102489.88
2024-01-24T16:02:02.953Z,102487.38
2024-01-24T16:04:30.843Z,102492.63
2024-01-24T16:07:01.304Z,102483.75
2024-01-24T16:09:28.052Z,102492.06
2024-01-24T16:11:54.929Z,102486.25
2024-01-24T16:14:28.506Z,102493.47
2024-01-24T16:16:56.835Z,102496.91
2024-01-24T16:19:24.393Z,102501.47
2024-01-24T16:21:53.315Z,102503.28
2024-01-24T16:24:20.186Z,102513.22
2024-01-24T16:26:47.097Z,102512.41
2024-01-24T16:29:15.312Z,102514.19
2024-01-24T16:31:42.083Z,102516.84
2024-01-24T16:34:08.760Z,102520.44
2024-01-24T16:36:36.053Z,102523.19
2024-01-24T16:39:02.826Z,102533.00
2024-01-24T16:41:29.340Z,102542.56
2024-01-24T16:43:55.996Z,102537.97
2024-01-24T16:46:22.460Z,102535.50
2024-01-24T16:48:49.174Z,102537.03
2024-01-24T16:51:17.043Z,102538.94
2024-01-24T16:53:43.595Z,102542.56
2024-01-24T16:56:10.117Z,102538.28
2024-01-24T16:58:36.653Z,102541.72
2024-01-24T17:01:04.640Z,102551.13
2024-01-24T17:03:31.545Z,102544.63
2024-01-24T17:05:58.367Z,102556.22
2024-01-24T17:08:24.969Z,102564.81
2024-01-24T17:10:51.531Z,102555.13
2024-01-24T17:13:18.584Z,102552.63
2024-01-24T17:15:45.949Z,102562.03
2024-01-24T17:18:12.979Z,102556.66
2024-01-24T17:20:40.045Z,102565.38
2024-01-24T17:23:06.619Z,102569.09
2024-01-24T17:25:33.200Z,102571.03
2024-01-24T17:27:59.828Z,102575.06
2024-01-24T17:30:26.530Z,102583.91
2024-01-24T17:32:53.228Z,102581.28
2024-01-24T17:35:19.798Z,102582.38
2024-01-24T17:37:46.515Z,102590.13
2024-01-24T17:40:13.455Z,102588.31
2024-01-24T17:42:40.665Z,102590.38
2024-01-24T17:45:07.917Z,102595.53
2024-01-24T17:47:35.650Z,102598.41
2024-01-24T17:50:03.550Z,102602.00
2024-01-24T17:52:30.367Z,102609.19
2024-01-24T17:55:02.629Z,102618.31
2024-01-24T17:57:29.473Z,102608.09
2024-01-24T17:59:56.360Z,102617.91
2024-01-24T18:02:23.114Z,102615.28
2024-01-24T18:04:50.082Z,102608.22
2024-01-24T18:07:17.288Z,102619.28
2024-01-24T18:09:44.492Z,102612.47
2024-01-24T18:12:11.335Z,102615.50
2024-01-24T18:14:38.441Z,102603.31
2024-01-24T18:17:05.294Z,102598.31
2024-01-24T18:19:33.260Z,102598.47
2024-01-24T18:22:01.064Z,102609.38
2024-01-24T18:24:27.787Z,102599.28
2024-01-24T18:26:54.361Z,102607.41
2024-01-24T18:29:20.930Z,102605.72
2024-01-24T18:31:48.442Z,102604.31
2024-01-24T18:34:15.734Z,102593.25
2024-01-24T18:36:42.436Z,102598.78
2024-01-24T18:39:09.057Z,102599.97
2024-01-24T18:41:36.077Z,102601.22
2024-01-24T18:44:02.606Z,102605.53
2024-01-24T18:46:29.616Z,102615.31
2024-01-24T18:48:57.303Z,102613.88
2024-01-24T18:51:25.339Z,102604.44
2024-01-24T18:53:51.919Z,102608.03
2024-01-24T18:56:19.811Z,102611.75
2024-01-24T18:58:46.937Z,102604.03
2024-01-24T19:01:14.145Z,102610.94
2024-01-24T19:03:41.699Z,102606.66
2024-01-24T19:06:08.701Z,102612.72
2024-01-24T19:08:37.527Z,102613.56
2024-01-24T19:11:04.962Z,102620.84
2024-01-24T19:13:32.151Z,102609.66
2024-01-24T19:15:59.488Z,102617.66
2024-01-24T19:18:27.726Z,102616.13
2024-01-24T19:20:54.973Z,102626.50
2024-01-24T19:23:21.529Z,102636.41
2024-01-24T19:25:48.161Z,102636.28
2024-01-24T19:28:14.845Z,102632.13
2024-01-24T19:30:41.502Z,102633.78
2024-01-24T19:33:08.212Z,102629.13
2024-01-24T19:35:35.138Z,102632.72
2024-01-24T19:38:01.935Z,102633.53
2024-01-24T19:40:28.415Z,102624.13
2024-01-24T19:42:55.960Z,102631.16
2024-01-24T19:45:22.604Z,102633.06
2024-01-24T19:47:49.374Z,102634.28
2024-01-24T19:50:17.090Z,102636.22
2024-01-24T19:52:43.694Z,102630.97
2024-01-24T19:55:10.407Z,102630.00
2024-01-24T19:57:37.638Z,102633.34
2024-01-24T20:00:04.903Z,102636.91
2024-01-24T20:02:32.696Z,102632.78
2024-01-24T20:04:59.384Z,102640.66
2024-01-24T20:07:25.955Z,102648.63
2024-01-24T20:09:54.648Z,102658.44
2024-01-24T20:12:22.927Z,102656.75
2024-01-24T20:14:52.671Z,102650.56
2024-01-24T20:17:21.729Z,102664.75
2024-01-24T20:19:50.076Z,102653.19
2024-01-24T20:22:16.970Z,102652.31
2024-01-24T20:24:43.652Z,102669.63
2024-01-24T20:27:10.645Z,102656.50
2024-01-24T20:29:37.171Z,102663.69
2024-01-24T20:32:04.622Z,102669.38
2024-01-24T20:34:31.624Z,102659.94
2024-01-24T20:36:59.014Z,102659.84
2024-01-24T20:39:26.536Z,102667.81
2024-01-24T20:41:53.155Z,102671.28
2024-01-24T20:44:20.372Z,102668.31
2024-01-24T20:46:46.978Z,102669.13
2024-01-24T20:49:13.665Z,102662.09
2024-01-24T20:51:40.866Z,102651.59
2024-01-24T20:54:09.558Z,102662.22
2024-01-24T20:56:36.293Z,102667.19
2024-01-24T20:59:02.837Z,102663.63
2024-01-24T21:01:29.630Z,102655.75
2024-01-24T21:03:56.832Z,102666.13
2024-01-24T21:06:26.426Z,102648.00
2024-01-24T21:08:54.331Z,102650.63
2024-01-24T21:11:21.938Z,102653.97
2024-01-24T21:13:48.592Z,102661.31
2024-01-24T21:16:15.681Z,102668.50
2024-01-24T21:18:43.435Z,102664.91
2024-01-24T21:21:11.568Z,102668.25
2024-01-24T21:23:38.153Z,102669.91
2024-01-24T21:26:04.777Z,102673.34
2024-01-24T21:28:31.324Z,102670.63
2024-01-24T21:30:57.922Z,102660.94
2024-01-24T21:33:24.598Z,102664.41
2024-01-24T21:35:51.275Z,102653.91
2024-01-24T21:38:18.509Z,102657.50
2024-01-24T21:40:45.132Z,102660.81
2024-01-24T21:43:11.641Z,102666.63
2024-01-24T21:45:38.185Z,102679.06
2024-01-24T21:48:06.197Z,102669.41
2024-01-24T21:50:32.751Z,102678.94
2024-01-24T21:52:59.242Z,102686.94
2024-01-24T21:55:25.710Z,102684.44
2024-01-24T21:57:53.448Z,102670.34
2024-01-24T22:00:20.644Z,102676.53
2024-01-24T22:02:47.336Z,102686.19
2024-01-24T22:05:13.891Z,102681.78
2024-01-24T22:07:42.084Z,102688.00
2024-01-24T22:10:09.126Z,102694.66
2024-01-24T22:12:37.673Z,102692.28
2024-01-24T22:15:09.313Z,102705.53
2024-01-24T22:17:35.980Z,102706.50
2024-01-24T22:20:03.348Z,102708.25
2024-01-24T22:22:29.822Z,102703.00
2024-01-24T22:24:56.337Z,102709.22
2024-01-24T22:27:22.911Z,102715.09
2024-01-24T22:29:49.434Z,102714.69
2024-01-24T22:32:16.512Z,102709.94
2024-01-24T22:34:43.312Z,102710.78
2024-01-24T22:37:10.498Z,102712.69
2024-01-24T22:39:37.126Z,102714.03
2024-01-24T22:42:03.832Z,102704.75
2024-01-24T22:44:30.383Z,102712.72
2024-01-24T22:46:56.876Z,102707.47
2024-01-24T22:49:23.708Z,102713.56
2024-01-24T22:51:50.275Z,102719.19
2024-01-24T22:54:17.231Z,102729.94
2024-01-24T22:56:43.754Z,102731.88
2024-01-24T22:59:10.398Z,102730.09
2024-01-24T23:01:37.044Z,102736.28
2024-01-24T23:04:03.887Z,102733.66
2024-01-24T23:06:30.597Z,102728.28
2024-01-24T23:08:57.181Z,102733.09
2024-01-24T23:11:23.715Z,102739.78
2024-01-24T23:13:50.290Z,102754.66
2024-01-24T23:16:17.321Z,102759.91
2024-01-24T23:18:44.048Z,102759.59
2024-01-24T23:21:10.782Z,102759.72
2024-01-24T23:23:37.542Z,102773.06
2024-01-24T23:26:04.231Z,102762.25
2024-01-24T23:28:30.883Z,102766.44
2024-01-24T23:30:57.641Z,102762.53
2024-01-24T23:33:25.727Z,102766.34
2024-01-24T23:35:52.329Z,102772.06
2024-01-24T23:38:18.829Z,102771.34
2024-01-24T23:40:45.376Z,102760.38
2024-01-24T23:43:12.013Z,102762.66
2024-01-24T23:45:38.575Z,102770.16
2024-01-24T23:48:05.492Z,102777.78
2024-01-24T23:50:32.402Z,102768.38
2024-01-24T23:53:00.367Z,102779.19
2024-01-24T23:55:27.406Z,102772.66
2024-01-24T23:57:55.005Z,102773.63
